METAR Data

Data at: 0612 UTC 28 Sep 2022

METAR for:KUUU (Newport State Arpt, RI, US)
Text:KUUU 280553Z AUTO 00000KT 10SM CLR 14/09 A2995 RMK AO2 SLP140 T01390089 10167 20139 51010
Temperature: 13.9°C ( 57°F)
Dewpoint: 8.9°C ( 48°F) [RH = 72%]
Pressure (altimeter):29.95 inches Hg (1014.3 mb) [Sea level pressure: 1014.0 mb]
Winds:calm
Visibility:10 or more sm (16+ km)
Ceiling:at least 12,000 feet AGL
Clouds:sky clear below 12,000 feet AGL
QC Flag:automated observation with no human augmentation